sensor_id;sensor_type;location;lat;lon;timestamp;P1;durP1;ratioP1;P2;durP2;ratioP2
13279;SDS011;6708;49.814;8.652;2024-02-15T00:01:01;2.00;;;1.30;;
13279;SDS011;6708;49.814;8.652;2024-02-15T00:03:30;2.87;;;1.33;;
13279;SDS011;6708;49.814;8.652;2024-02-15T00:06:00;3.03;;;1.50;;
13279;SDS011;6708;49.814;8.652;2024-02-15T00:08:28;1.50;;;1.40;;
13279;SDS011;6708;49.814;8.652;2024-02-15T00:10:58;1.70;;;1.60;;
13279;SDS011;6708;49.814;8.652;2024-02-15T00:13:26;2.40;;;1.50;;
13279;SDS011;6708;49.814;8.652;2024-02-15T00:15:56;1.40;;;1.17;;
13279;SDS011;6708;49.814;8.652;2024-02-15T00:18:27;1.53;;;1.37;;
13279;SDS011;6708;49.814;8.652;2024-02-15T00:20:56;2.10;;;1.13;;
13279;SDS011;6708;49.814;8.652;2024-02-15T00:23:25;2.20;;;1.07;;
13279;SDS011;6708;49.814;8.652;2024-02-15T00:25:54;4.60;;;1.40;;
13279;SDS011;6708;49.814;8.652;2024-02-15T00:28:23;1.50;;;1.40;;
13279;SDS011;6708;49.814;8.652;2024-02-15T00:30:52;1.10;;;1.10;;
13279;SDS011;6708;49.814;8.652;2024-02-15T00:33:21;2.27;;;1.60;;
13279;SDS011;6708;49.814;8.652;2024-02-15T00:35:54;1.40;;;1.30;;
13279;SDS011;6708;49.814;8.652;2024-02-15T00:38:23;1.37;;;1.27;;
13279;SDS011;6708;49.814;8.652;2024-02-15T00:40:52;1.30;;;1.20;;
13279;SDS011;6708;49.814;8.652;2024-02-15T00:43:21;1.40;;;1.37;;
13279;SDS011;6708;49.814;8.652;2024-02-15T00:45:50;1.43;;;1.33;;
13279;SDS011;6708;49.814;8.652;2024-02-15T00:48:21;1.30;;;1.20;;
13279;SDS011;6708;49.814;8.652;2024-02-15T00:50:51;1.67;;;1.57;;
13279;SDS011;6708;49.814;8.652;2024-02-15T00:53:23;2.87;;;1.50;;
13279;SDS011;6708;49.814;8.652;2024-02-15T00:55:53;2.93;;;1.60;;
13279;SDS011;6708;49.814;8.652;2024-02-15T00:58:22;1.60;;;1.30;;
13279;SDS011;6708;49.814;8.652;2024-02-15T01:00:52;1.30;;;1.20;;
13279;SDS011;6708;49.814;8.652;2024-02-15T01:03:21;1.17;;;1.13;;
13279;SDS011;6708;49.814;8.652;2024-02-15T01:05:50;1.40;;;1.30;;
13279;SDS011;6708;49.814;8.652;2024-02-15T01:08:22;1.43;;;1.33;;
13279;SDS011;6708;49.814;8.652;2024-02-15T01:10:53;7.07;;;1.73;;
13279;SDS011;6708;49.814;8.652;2024-02-15T01:13:23;1.60;;;1.50;;
13279;SDS011;6708;49.814;8.652;2024-02-15T01:15:52;2.17;;;1.60;;
13279;SDS011;6708;49.814;8.652;2024-02-15T01:18:21;1.60;;;1.50;;
13279;SDS011;6708;49.814;8.652;2024-02-15T01:20:50;1.90;;;1.80;;
13279;SDS011;6708;49.814;8.652;2024-02-15T01:23:22;3.53;;;1.50;;
13279;SDS011;6708;49.814;8.652;2024-02-15T01:25:51;1.57;;;1.47;;
13279;SDS011;6708;49.814;8.652;2024-02-15T01:28:20;1.90;;;1.40;;
13279;SDS011;6708;49.814;8.652;2024-02-15T01:30:49;4.47;;;1.60;;
13279;SDS011;6708;49.814;8.652;2024-02-15T01:33:18;1.60;;;1.50;;
13279;SDS011;6708;49.814;8.652;2024-02-15T01:35:47;1.97;;;1.80;;
13279;SDS011;6708;49.814;8.652;2024-02-15T01:38:16;3.33;;;1.83;;
13279;SDS011;6708;49.814;8.652;2024-02-15T01:40:49;2.37;;;1.40;;
13279;SDS011;6708;49.814;8.652;2024-02-15T01:43:18;1.30;;;1.20;;
13279;SDS011;6708;49.814;8.652;2024-02-15T01:45:47;1.47;;;1.37;;
13279;SDS011;6708;49.814;8.652;2024-02-15T01:48:17;2.17;;;1.50;;
13279;SDS011;6708;49.814;8.652;2024-02-15T01:50:47;2.47;;;1.40;;
13279;SDS011;6708;49.814;8.652;2024-02-15T01:53:17;2.33;;;1.27;;
13279;SDS011;6708;49.814;8.652;2024-02-15T01:55:48;3.70;;;1.30;;
13279;SDS011;6708;49.814;8.652;2024-02-15T01:58:17;2.53;;;1.20;;
13279;SDS011;6708;49.814;8.652;2024-02-15T02:00:47;1.77;;;1.53;;
13279;SDS011;6708;49.814;8.652;2024-02-15T02:03:17;2.23;;;1.30;;
13279;SDS011;6708;49.814;8.652;2024-02-15T02:05:47;1.50;;;1.40;;
13279;SDS011;6708;49.814;8.652;2024-02-15T02:08:15;1.63;;;1.53;;
13279;SDS011;6708;49.814;8.652;2024-02-15T02:10:58;2.87;;;1.63;;
13279;SDS011;6708;49.814;8.652;2024-02-15T02:13:27;2.13;;;1.40;;
13279;SDS011;6708;49.814;8.652;2024-02-15T02:15:56;1.80;;;1.20;;
13279;SDS011;6708;49.814;8.652;2024-02-15T02:18:25;3.17;;;1.50;;
13279;SDS011;6708;49.814;8.652;2024-02-15T02:20:54;2.37;;;1.30;;
13279;SDS011;6708;49.814;8.652;2024-02-15T02:23:25;3.50;;;1.47;;
13279;SDS011;6708;49.814;8.652;2024-02-15T02:25:57;3.07;;;1.20;;
13279;SDS011;6708;49.814;8.652;2024-02-15T02:28:28;1.23;;;1.23;;
13279;SDS011;6708;49.814;8.652;2024-02-15T02:30:56;1.27;;;1.17;;
13279;SDS011;6708;49.814;8.652;2024-02-15T02:33:25;1.23;;;1.00;;
13279;SDS011;6708;49.814;8.652;2024-02-15T02:35:55;2.07;;;1.43;;
13279;SDS011;6708;49.814;8.652;2024-02-15T02:38:25;1.97;;;1.77;;
13279;SDS011;6708;49.814;8.652;2024-02-15T02:40:57;1.17;;;1.07;;
13279;SDS011;6708;49.814;8.652;2024-02-15T02:43:26;1.20;;;1.10;;
13279;SDS011;6708;49.814;8.652;2024-02-15T02:45:55;2.77;;;1.30;;
13279;SDS011;6708;49.814;8.652;2024-02-15T02:48:24;1.20;;;1.10;;
13279;SDS011;6708;49.814;8.652;2024-02-15T02:50:52;1.70;;;1.27;;
13279;SDS011;6708;49.814;8.652;2024-02-15T02:53:21;1.90;;;1.30;;
13279;SDS011;6708;49.814;8.652;2024-02-15T02:55:51;1.07;;;1.07;;
13279;SDS011;6708;49.814;8.652;2024-02-15T02:58:24;1.33;;;1.20;;
13279;SDS011;6708;49.814;8.652;2024-02-15T03:00:52;1.00;;;1.00;;
13279;SDS011;6708;49.814;8.652;2024-02-15T03:03:22;1.23;;;1.20;;
13279;SDS011;6708;49.814;8.652;2024-02-15T03:05:51;1.40;;;1.30;;
13279;SDS011;6708;49.814;8.652;2024-02-15T03:08:20;1.63;;;1.33;;
13279;SDS011;6708;49.814;8.652;2024-02-15T03:10:51;1.10;;;1.00;;
13279;SDS011;6708;49.814;8.652;2024-02-15T03:13:20;2.73;;;1.47;;
13279;SDS011;6708;49.814;8.652;2024-02-15T03:15:51;1.17;;;1.17;;
13279;SDS011;6708;49.814;8.652;2024-02-15T03:18:20;1.67;;;1.57;;
13279;SDS011;6708;49.814;8.652;2024-02-15T03:20:49;1.67;;;1.57;;
13279;SDS011;6708;49.814;8.652;2024-02-15T03:23:18;2.97;;;1.37;;
13279;SDS011;6708;49.814;8.652;2024-02-15T03:25:49;1.50;;;1.17;;
13279;SDS011;6708;49.814;8.652;2024-02-15T03:28:19;2.43;;;1.30;;
13279;SDS011;6708;49.814;8.652;2024-02-15T03:30:51;1.40;;;1.30;;
13279;SDS011;6708;49.814;8.652;2024-02-15T03:33:21;1.83;;;1.20;;
13279;SDS011;6708;49.814;8.652;2024-02-15T03:35:52;1.43;;;1.10;;
13279;SDS011;6708;49.814;8.652;2024-02-15T03:38:26;1.43;;;1.10;;
13279;SDS011;6708;49.814;8.652;2024-02-15T03:40:56;3.07;;;1.30;;
13279;SDS011;6708;49.814;8.652;2024-02-15T03:43:27;1.50;;;1.40;;
13279;SDS011;6708;49.814;8.652;2024-02-15T03:45:59;1.70;;;1.33;;
13279;SDS011;6708;49.814;8.652;2024-02-15T03:48:27;1.87;;;1.23;;
13279;SDS011;6708;49.814;8.652;2024-02-15T03:50:57;1.67;;;1.00;;
13279;SDS011;6708;49.814;8.652;2024-02-15T03:53:27;4.20;;;1.40;;
13279;SDS011;6708;49.814;8.652;2024-02-15T03:55:59;1.87;;;1.30;;
13279;SDS011;6708;49.814;8.652;2024-02-15T03:58:27;1.73;;;1.00;;
13279;SDS011;6708;49.814;8.652;2024-02-15T04:01:00;1.23;;;1.13;;
13279;SDS011;6708;49.814;8.652;2024-02-15T04:03:31;1.50;;;1.20;;
13279;SDS011;6708;49.814;8.652;2024-02-15T04:06:01;1.83;;;0.83;;
13279;SDS011;6708;49.814;8.652;2024-02-15T04:08:30;0.97;;;0.97;;
13279;SDS011;6708;49.814;8.652;2024-02-15T04:11:01;1.00;;;1.00;;
13279;SDS011;6708;49.814;8.652;2024-02-15T04:13:31;2.90;;;1.10;;
13279;SDS011;6708;49.814;8.652;2024-02-15T04:16:03;2.33;;;1.00;;
13279;SDS011;6708;49.814;8.652;2024-02-15T04:18:32;1.80;;;1.07;;
13279;SDS011;6708;49.814;8.652;2024-02-15T04:21:03;2.23;;;1.33;;
13279;SDS011;6708;49.814;8.652;2024-02-15T04:23:32;3.60;;;1.50;;
13279;SDS011;6708;49.814;8.652;2024-02-15T04:26:01;1.23;;;1.10;;
13279;SDS011;6708;49.814;8.652;2024-02-15T04:28:30;1.13;;;1.03;;
13279;SDS011;6708;49.814;8.652;2024-02-15T04:30:59;3.53;;;1.00;;
13279;SDS011;6708;49.814;8.652;2024-02-15T04:33:31;2.17;;;1.10;;
13279;SDS011;6708;49.814;8.652;2024-02-15T04:35:59;1.77;;;1.30;;
13279;SDS011;6708;49.814;8.652;2024-02-15T04:38:32;1.20;;;0.93;;
13279;SDS011;6708;49.814;8.652;2024-02-15T04:41:02;1.37;;;1.27;;
13279;SDS011;6708;49.814;8.652;2024-02-15T04:43:35;1.00;;;1.00;;
13279;SDS011;6708;49.814;8.652;2024-02-15T04:46:06;0.80;;;0.80;;
13279;SDS011;6708;49.814;8.652;2024-02-15T04:48:38;1.30;;;1.20;;
13279;SDS011;6708;49.814;8.652;2024-02-15T04:51:07;1.40;;;1.30;;
13279;SDS011;6708;49.814;8.652;2024-02-15T04:53:36;1.10;;;1.00;;
13279;SDS011;6708;49.814;8.652;2024-02-15T04:56:06;2.03;;;1.20;;
13279;SDS011;6708;49.814;8.652;2024-02-15T04:58:39;2.17;;;1.30;;
13279;SDS011;6708;49.814;8.652;2024-02-15T05:01:14;3.90;;;1.40;;
13279;SDS011;6708;49.814;8.652;2024-02-15T05:03:46;3.13;;;1.50;;
13279;SDS011;6708;49.814;8.652;2024-02-15T05:06:15;2.67;;;1.23;;
13279;SDS011;6708;49.814;8.652;2024-02-15T05:08:44;3.37;;;1.37;;
13279;SDS011;6708;49.814;8.652;2024-02-15T05:11:13;3.87;;;1.60;;
13279;SDS011;6708;49.814;8.652;2024-02-15T05:13:43;2.17;;;1.37;;
13279;SDS011;6708;49.814;8.652;2024-02-15T05:16:12;1.33;;;1.23;;
13279;SDS011;6708;49.814;8.652;2024-02-15T05:18:41;1.17;;;1.07;;
13279;SDS011;6708;49.814;8.652;2024-02-15T05:21:13;1.73;;;1.10;;
13279;SDS011;6708;49.814;8.652;2024-02-15T05:23:42;4.73;;;1.53;;
13279;SDS011;6708;49.814;8.652;2024-02-15T05:26:11;1.10;;;1.00;;
13279;SDS011;6708;49.814;8.652;2024-02-15T05:28:41;1.10;;;1.10;;
13279;SDS011;6708;49.814;8.652;2024-02-15T05:31:11;2.60;;;1.20;;
13279;SDS011;6708;49.814;8.652;2024-02-15T05:33:42;1.50;;;1.00;;
13279;SDS011;6708;49.814;8.652;2024-02-15T05:36:16;2.27;;;1.20;;
13279;SDS011;6708;49.814;8.652;2024-02-15T05:38:46;0.97;;;0.90;;
13279;SDS011;6708;49.814;8.652;2024-02-15T05:41:15;2.60;;;1.27;;
13279;SDS011;6708;49.814;8.652;2024-02-15T05:43:45;4.57;;;1.30;;
13279;SDS011;6708;49.814;8.652;2024-02-15T05:46:14;0.90;;;0.90;;
13279;SDS011;6708;49.814;8.652;2024-02-15T05:48:42;5.93;;;1.53;;
13279;SDS011;6708;49.814;8.652;2024-02-15T05:51:11;2.00;;;1.17;;
13279;SDS011;6708;49.814;8.652;2024-02-15T05:53:43;2.47;;;1.10;;
13279;SDS011;6708;49.814;8.652;2024-02-15T05:56:12;2.00;;;0.93;;
13279;SDS011;6708;49.814;8.652;2024-02-15T05:58:41;2.93;;;0.90;;
13279;SDS011;6708;49.814;8.652;2024-02-15T06:01:11;1.07;;;0.93;;
13279;SDS011;6708;49.814;8.652;2024-02-15T06:03:40;3.80;;;1.13;;
13279;SDS011;6708;49.814;8.652;2024-02-15T06:06:10;2.47;;;1.13;;
13279;SDS011;6708;49.814;8.652;2024-02-15T06:08:39;3.63;;;1.40;;
13279;SDS011;6708;49.814;8.652;2024-02-15T06:11:10;1.20;;;1.10;;
13279;SDS011;6708;49.814;8.652;2024-02-15T06:13:40;1.33;;;1.20;;
13279;SDS011;6708;49.814;8.652;2024-02-15T06:16:11;1.53;;;0.70;;
13279;SDS011;6708;49.814;8.652;2024-02-15T06:18:40;1.40;;;1.30;;
13279;SDS011;6708;49.814;8.652;2024-02-15T06:21:08;2.80;;;1.20;;
13279;SDS011;6708;49.814;8.652;2024-02-15T06:23:37;1.57;;;1.10;;
13279;SDS011;6708;49.814;8.652;2024-02-15T06:26:06;2.00;;;1.13;;
13279;SDS011;6708;49.814;8.652;2024-02-15T06:28:42;1.17;;;1.07;;
13279;SDS011;6708;49.814;8.652;2024-02-15T06:31:23;3.73;;;1.40;;
13279;SDS011;6708;49.814;8.652;2024-02-15T06:34:04;2.63;;;1.60;;
13279;SDS011;6708;49.814;8.652;2024-02-15T06:36:45;2.50;;;1.90;;
13279;SDS011;6708;49.814;8.652;2024-02-15T06:39:27;2.07;;;1.57;;
13279;SDS011;6708;49.814;8.652;2024-02-15T06:42:11;1.30;;;1.10;;
13279;SDS011;6708;49.814;8.652;2024-02-15T06:44:44;1.37;;;1.23;;
13279;SDS011;6708;49.814;8.652;2024-02-15T06:47:15;1.67;;;1.10;;
13279;SDS011;6708;49.814;8.652;2024-02-15T06:49:45;1.70;;;1.00;;
13279;SDS011;6708;49.814;8.652;2024-02-15T06:52:17;1.93;;;1.00;;
13279;SDS011;6708;49.814;8.652;2024-02-15T06:54:45;1.00;;;1.00;;
13279;SDS011;6708;49.814;8.652;2024-02-15T06:57:14;1.60;;;1.10;;
13279;SDS011;6708;49.814;8.652;2024-02-15T06:59:48;1.47;;;1.27;;
13279;SDS011;6708;49.814;8.652;2024-02-15T07:02:17;1.77;;;0.90;;
13279;SDS011;6708;49.814;8.652;2024-02-15T07:04:48;1.13;;;1.00;;
13279;SDS011;6708;49.814;8.652;2024-02-15T07:07:17;0.80;;;0.80;;
13279;SDS011;6708;49.814;8.652;2024-02-15T07:09:47;1.73;;;1.10;;
13279;SDS011;6708;49.814;8.652;2024-02-15T07:12:16;1.53;;;0.93;;
13279;SDS011;6708;49.814;8.652;2024-02-15T07:14:49;2.30;;;1.87;;
13279;SDS011;6708;49.814;8.652;2024-02-15T07:17:18;1.17;;;0.80;;
13279;SDS011;6708;49.814;8.652;2024-02-15T07:19:46;0.90;;;0.90;;
13279;SDS011;6708;49.814;8.652;2024-02-15T07:22:16;1.27;;;1.17;;
13279;SDS011;6708;49.814;8.652;2024-02-15T07:24:45;2.70;;;1.40;;
13279;SDS011;6708;49.814;8.652;2024-02-15T07:27:14;3.60;;;1.10;;
13279;SDS011;6708;49.814;8.652;2024-02-15T07:29:43;2.93;;;0.90;;
13279;SDS011;6708;49.814;8.652;2024-02-15T07:32:15;1.33;;;1.23;;
13279;SDS011;6708;49.814;8.652;2024-02-15T07:34:44;0.93;;;0.93;;
13279;SDS011;6708;49.814;8.652;2024-02-15T07:37:13;3.33;;;1.00;;
13279;SDS011;6708;49.814;8.652;2024-02-15T07:39:42;3.37;;;1.07;;
13279;SDS011;6708;49.814;8.652;2024-02-15T07:42:12;1.77;;;1.20;;
13279;SDS011;6708;49.814;8.652;2024-02-15T07:44:41;1.23;;;1.07;;
13279;SDS011;6708;49.814;8.652;2024-02-15T07:47:09;1.03;;;0.93;;
13279;SDS011;6708;49.814;8.652;2024-02-15T07:49:41;2.00;;;1.00;;
13279;SDS011;6708;49.814;8.652;2024-02-15T07:52:11;1.77;;;1.30;;
13279;SDS011;6708;49.814;8.652;2024-02-15T07:54:40;1.97;;;0.90;;
13279;SDS011;6708;49.814;8.652;2024-02-15T07:57:08;6.70;;;1.13;;
13279;SDS011;6708;49.814;8.652;2024-02-15T07:59:37;1.20;;;1.10;;
13279;SDS011;6708;49.814;8.652;2024-02-15T08:02:07;3.80;;;1.67;;
13279;SDS011;6708;49.814;8.652;2024-02-15T08:04:38;1.80;;;0.90;;
13279;SDS011;6708;49.814;8.652;2024-02-15T08:07:10;1.77;;;1.00;;
13279;SDS011;6708;49.814;8.652;2024-02-15T08:09:39;2.30;;;0.90;;
13279;SDS011;6708;49.814;8.652;2024-02-15T08:12:10;0.70;;;0.70;;
13279;SDS011;6708;49.814;8.652;2024-02-15T08:14:39;1.43;;;0.80;;
13279;SDS011;6708;49.814;8.652;2024-02-15T08:17:09;1.60;;;0.60;;
13279;SDS011;6708;49.814;8.652;2024-02-15T08:19:42;5.00;;;0.90;;
13279;SDS011;6708;49.814;8.652;2024-02-15T08:22:10;2.37;;;0.70;;
13279;SDS011;6708;49.814;8.652;2024-02-15T08:24:39;1.77;;;0.73;;
13279;SDS011;6708;49.814;8.652;2024-02-15T08:27:09;1.00;;;1.00;;
13279;SDS011;6708;49.814;8.652;2024-02-15T08:29:41;1.47;;;0.90;;
13279;SDS011;6708;49.814;8.652;2024-02-15T08:32:10;1.13;;;0.80;;
13279;SDS011;6708;49.814;8.652;2024-02-15T08:34:42;0.90;;;0.90;;
13279;SDS011;6708;49.814;8.652;2024-02-15T08:37:13;1.07;;;0.97;;
13279;SDS011;6708;49.814;8.652;2024-02-15T08:39:43;2.27;;;1.17;;
13279;SDS011;6708;49.814;8.652;2024-02-15T08:42:12;1.00;;;0.90;;
13279;SDS011;6708;49.814;8.652;2024-02-15T08:44:41;1.67;;;1.07;;
13279;SDS011;6708;49.814;8.652;2024-02-15T08:47:10;1.10;;;1.10;;
13279;SDS011;6708;49.814;8.652;2024-02-15T08:49:41;0.70;;;0.70;;
13279;SDS011;6708;49.814;8.652;2024-02-15T08:52:12;1.10;;;1.07;;
13279;SDS011;6708;49.814;8.652;2024-02-15T08:54:43;1.13;;;1.03;;
13279;SDS011;6708;49.814;8.652;2024-02-15T08:57:12;1.07;;;1.00;;
13279;SDS011;6708;49.814;8.652;2024-02-15T08:59:43;1.00;;;1.00;;
13279;SDS011;6708;49.814;8.652;2024-02-15T09:02:11;0.90;;;0.90;;
13279;SDS011;6708;49.814;8.652;2024-02-15T09:04:43;1.93;;;1.00;;
13279;SDS011;6708;49.814;8.652;2024-02-15T09:07:12;1.90;;;0.90;;
13279;SDS011;6708;49.814;8.652;2024-02-15T09:09:41;1.23;;;1.00;;
13279;SDS011;6708;49.814;8.652;2024-02-15T09:12:09;2.07;;;1.00;;
13279;SDS011;6708;49.814;8.652;2024-02-15T09:14:38;3.47;;;1.13;;
13279;SDS011;6708;49.814;8.652;2024-02-15T09:17:08;2.93;;;1.13;;
13279;SDS011;6708;49.814;8.652;2024-02-15T09:19:37;1.73;;;1.10;;
13279;SDS011;6708;49.814;8.652;2024-02-15T09:22:10;1.87;;;1.07;;
13279;SDS011;6708;49.814;8.652;2024-02-15T09:24:39;3.90;;;1.00;;
13279;SDS011;6708;49.814;8.652;2024-02-15T09:27:08;1.20;;;1.10;;
13279;SDS011;6708;49.814;8.652;2024-02-15T09:29:38;1.93;;;0.97;;
13279;SDS011;6708;49.814;8.652;2024-02-15T09:32:08;2.73;;;1.10;;
13279;SDS011;6708;49.814;8.652;2024-02-15T09:34:37;1.60;;;1.00;;
13279;SDS011;6708;49.814;8.652;2024-02-15T09:37:06;0.93;;;0.93;;
13279;SDS011;6708;49.814;8.652;2024-02-15T09:39:37;1.47;;;1.30;;
13279;SDS011;6708;49.814;8.652;2024-02-15T09:42:06;3.13;;;1.10;;
13279;SDS011;6708;49.814;8.652;2024-02-15T09:44:35;2.37;;;1.27;;
13279;SDS011;6708;49.814;8.652;2024-02-15T09:47:06;1.43;;;0.97;;
13279;SDS011;6708;49.814;8.652;2024-02-15T09:49:35;1.27;;;0.90;;
13279;SDS011;6708;49.814;8.652;2024-02-15T09:52:06;0.90;;;0.90;;
13279;SDS011;6708;49.814;8.652;2024-02-15T09:54:43;1.67;;;1.00;;
13279;SDS011;6708;49.814;8.652;2024-02-15T09:57:12;1.40;;;1.30;;
13279;SDS011;6708;49.814;8.652;2024-02-15T09:59:43;2.23;;;1.13;;
13279;SDS011;6708;49.814;8.652;2024-02-15T10:02:12;2.53;;;1.00;;
13279;SDS011;6708;49.814;8.652;2024-02-15T10:04:42;1.17;;;0.80;;
13279;SDS011;6708;49.814;8.652;2024-02-15T10:07:12;3.33;;;1.00;;
13279;SDS011;6708;49.814;8.652;2024-02-15T10:09:45;0.60;;;0.60;;
13279;SDS011;6708;49.814;8.652;2024-02-15T10:12:14;1.33;;;0.87;;
13279;SDS011;6708;49.814;8.652;2024-02-15T10:14:47;0.77;;;0.73;;
13279;SDS011;6708;49.814;8.652;2024-02-15T10:17:18;0.80;;;0.80;;
13279;SDS011;6708;49.814;8.652;2024-02-15T10:20:02;2.73;;;0.70;;
13279;SDS011;6708;49.814;8.652;2024-02-15T10:22:32;1.23;;;1.10;;
13279;SDS011;6708;49.814;8.652;2024-02-15T10:25:15;1.17;;;0.70;;
13279;SDS011;6708;49.814;8.652;2024-02-15T10:27:44;1.27;;;0.90;;
13279;SDS011;6708;49.814;8.652;2024-02-15T10:30:16;1.40;;;0.70;;
13279;SDS011;6708;49.814;8.652;2024-02-15T10:32:47;3.37;;;1.03;;
13279;SDS011;6708;49.814;8.652;2024-02-15T10:35:19;1.27;;;0.93;;
13279;SDS011;6708;49.814;8.652;2024-02-15T10:37:48;1.07;;;0.83;;
13279;SDS011;6708;49.814;8.652;2024-02-15T10:40:21;1.97;;;1.30;;
13279;SDS011;6708;49.814;8.652;2024-02-15T10:42:50;1.90;;;0.80;;
13279;SDS011;6708;49.814;8.652;2024-02-15T10:45:21;1.13;;;1.03;;
13279;SDS011;6708;49.814;8.652;2024-02-15T10:47:50;2.40;;;1.30;;
13279;SDS011;6708;49.814;8.652;2024-02-15T10:50:19;1.77;;;0.90;;
13279;SDS011;6708;49.814;8.652;2024-02-15T10:52:50;2.13;;;1.03;;
13279;SDS011;6708;49.814;8.652;2024-02-15T10:55:33;2.03;;;0.80;;
13279;SDS011;6708;49.814;8.652;2024-02-15T10:58:05;0.80;;;0.80;;
13279;SDS011;6708;49.814;8.652;2024-02-15T11:00:34;2.63;;;0.87;;
13279;SDS011;6708;49.814;8.652;2024-02-15T11:03:07;1.27;;;1.03;;
13279;SDS011;6708;49.814;8.652;2024-02-15T11:05:36;1.97;;;0.90;;
13279;SDS011;6708;49.814;8.652;2024-02-15T11:08:07;1.90;;;1.07;;
13279;SDS011;6708;49.814;8.652;2024-02-15T11:10:39;3.20;;;1.30;;
13279;SDS011;6708;49.814;8.652;2024-02-15T11:13:11;1.37;;;0.90;;
13279;SDS011;6708;49.814;8.652;2024-02-15T11:15:40;0.83;;;0.77;;
13279;SDS011;6708;49.814;8.652;2024-02-15T11:18:12;2.33;;;0.90;;
13279;SDS011;6708;49.814;8.652;2024-02-15T11:20:47;0.83;;;0.73;;
13279;SDS011;6708;49.814;8.652;2024-02-15T11:23:24;1.70;;;0.73;;
13279;SDS011;6708;49.814;8.652;2024-02-15T11:26:00;1.53;;;0.73;;
13279;SDS011;6708;49.814;8.652;2024-02-15T11:28:36;1.70;;;0.80;;
13279;SDS011;6708;49.814;8.652;2024-02-15T11:31:07;1.53;;;0.80;;
13279;SDS011;6708;49.814;8.652;2024-02-15T11:33:38;0.67;;;0.67;;
13279;SDS011;6708;49.814;8.652;2024-02-15T11:36:05;1.27;;;0.70;;
13279;SDS011;6708;49.814;8.652;2024-02-15T11:38:35;1.60;;;0.80;;
13279;SDS011;6708;49.814;8.652;2024-02-15T11:41:09;0.70;;;0.70;;
13279;SDS011;6708;49.814;8.652;2024-02-15T11:43:46;1.20;;;0.80;;
13279;SDS011;6708;49.814;8.652;2024-02-15T11:46:20;1.30;;;0.70;;
13279;SDS011;6708;49.814;8.652;2024-02-15T11:48:50;1.17;;;0.87;;
13279;SDS011;6708;49.814;8.652;2024-02-15T11:51:28;0.83;;;0.60;;
13279;SDS011;6708;49.814;8.652;2024-02-15T11:54:02;1.90;;;1.20;;
13279;SDS011;6708;49.814;8.652;2024-02-15T11:59:39;4.47;;;0.70;;
13279;SDS011;6708;49.814;8.652;2024-02-15T12:02:19;0.63;;;0.50;;
13279;SDS011;6708;49.814;8.652;2024-02-15T12:05:00;1.83;;;1.07;;
13279;SDS011;6708;49.814;8.652;2024-02-15T12:07:41;0.57;;;0.57;;
13279;SDS011;6708;49.814;8.652;2024-02-15T12:10:25;0.47;;;0.33;;
13279;SDS011;6708;49.814;8.652;2024-02-15T12:13:10;1.00;;;0.53;;
13279;SDS011;6708;49.814;8.652;2024-02-15T12:15:57;3.23;;;0.80;;
13279;SDS011;6708;49.814;8.652;2024-02-15T12:18:38;2.77;;;0.73;;
13279;SDS011;6708;49.814;8.652;2024-02-15T12:21:07;0.73;;;0.70;;
13279;SDS011;6708;49.814;8.652;2024-02-15T12:23:37;0.57;;;0.57;;
13279;SDS011;6708;49.814;8.652;2024-02-15T12:26:06;0.80;;;0.80;;
13279;SDS011;6708;49.814;8.652;2024-02-15T12:28:38;1.57;;;0.80;;
13279;SDS011;6708;49.814;8.652;2024-02-15T12:31:08;4.57;;;0.90;;
13279;SDS011;6708;49.814;8.652;2024-02-15T12:33:38;0.50;;;0.40;;
13279;SDS011;6708;49.814;8.652;2024-02-15T12:36:08;3.00;;;0.67;;
13279;SDS011;6708;49.814;8.652;2024-02-15T12:38:37;0.97;;;0.80;;
13279;SDS011;6708;49.814;8.652;2024-02-15T12:41:17;1.03;;;0.63;;
13279;SDS011;6708;49.814;8.652;2024-02-15T12:43:55;3.70;;;0.60;;
13279;SDS011;6708;49.814;8.652;2024-02-15T12:46:24;0.50;;;0.50;;
13279;SDS011;6708;49.814;8.652;2024-02-15T12:49:08;3.40;;;0.80;;
13279;SDS011;6708;49.814;8.652;2024-02-15T12:51:42;0.87;;;0.57;;
13279;SDS011;6708;49.814;8.652;2024-02-15T12:54:19;0.77;;;0.50;;
13279;SDS011;6708;49.814;8.652;2024-02-15T12:56:49;0.60;;;0.53;;
13279;SDS011;6708;49.814;8.652;2024-02-15T12:59:21;3.60;;;1.13;;
13279;SDS011;6708;49.814;8.652;2024-02-15T13:01:50;2.00;;;0.53;;
13279;SDS011;6708;49.814;8.652;2024-02-15T13:04:22;0.57;;;0.57;;
13279;SDS011;6708;49.814;8.652;2024-02-15T13:06:51;1.60;;;1.00;;
13279;SDS011;6708;49.814;8.652;2024-02-15T13:09:20;1.13;;;0.80;;
13279;SDS011;6708;49.814;8.652;2024-02-15T13:11:50;1.00;;;0.90;;
13279;SDS011;6708;49.814;8.652;2024-02-15T13:14:22;1.60;;;0.90;;
13279;SDS011;6708;49.814;8.652;2024-02-15T13:16:55;6.23;;;1.13;;
13279;SDS011;6708;49.814;8.652;2024-02-15T13:19:24;0.97;;;0.60;;
13279;SDS011;6708;49.814;8.652;2024-02-15T13:21:54;1.40;;;0.80;;
13279;SDS011;6708;49.814;8.652;2024-02-15T13:24:23;0.97;;;0.80;;
13279;SDS011;6708;49.814;8.652;2024-02-15T13:26:53;1.27;;;1.03;;
13279;SDS011;6708;49.814;8.652;2024-02-15T13:29:24;1.27;;;0.80;;
13279;SDS011;6708;49.814;8.652;2024-02-15T13:31:53;1.17;;;0.57;;
13279;SDS011;6708;49.814;8.652;2024-02-15T13:34:22;0.97;;;0.97;;
13279;SDS011;6708;49.814;8.652;2024-02-15T13:36:53;1.80;;;0.93;;
13279;SDS011;6708;49.814;8.652;2024-02-15T13:39:22;3.70;;;0.60;;
13279;SDS011;6708;49.814;8.652;2024-02-15T13:41:50;1.37;;;1.00;;
13279;SDS011;6708;49.814;8.652;2024-02-15T13:44:20;0.90;;;0.90;;
13279;SDS011;6708;49.814;8.652;2024-02-15T13:46:51;1.97;;;1.00;;
13279;SDS011;6708;49.814;8.652;2024-02-15T13:49:20;3.30;;;1.17;;
13279;SDS011;6708;49.814;8.652;2024-02-15T13:51:50;4.40;;;1.10;;
13279;SDS011;6708;49.814;8.652;2024-02-15T13:54:19;1.80;;;0.93;;
13279;SDS011;6708;49.814;8.652;2024-02-15T13:56:48;1.27;;;1.00;;
13279;SDS011;6708;49.814;8.652;2024-02-15T13:59:17;0.63;;;0.63;;
13279;SDS011;6708;49.814;8.652;2024-02-15T14:01:45;1.57;;;0.90;;
13279;SDS011;6708;49.814;8.652;2024-02-15T14:04:17;1.27;;;0.70;;
13279;SDS011;6708;49.814;8.652;2024-02-15T14:06:46;1.33;;;0.87;;
13279;SDS011;6708;49.814;8.652;2024-02-15T14:09:15;2.87;;;1.20;;
13279;SDS011;6708;49.814;8.652;2024-02-15T14:11:45;0.70;;;0.70;;
13279;SDS011;6708;49.814;8.652;2024-02-15T14:14:16;2.33;;;0.80;;
13279;SDS011;6708;49.814;8.652;2024-02-15T14:16:45;1.37;;;0.83;;
13279;SDS011;6708;49.814;8.652;2024-02-15T14:19:14;1.03;;;0.83;;
13279;SDS011;6708;49.814;8.652;2024-02-15T14:21:46;0.73;;;0.73;;
13279;SDS011;6708;49.814;8.652;2024-02-15T14:24:15;1.80;;;0.90;;
13279;SDS011;6708;49.814;8.652;2024-02-15T14:26:44;1.70;;;0.90;;
13279;SDS011;6708;49.814;8.652;2024-02-15T14:29:13;0.80;;;0.70;;
13279;SDS011;6708;49.814;8.652;2024-02-15T14:31:46;1.37;;;1.00;;
13279;SDS011;6708;49.814;8.652;2024-02-15T14:34:29;0.93;;;0.63;;
13279;SDS011;6708;49.814;8.652;2024-02-15T14:37:01;1.67;;;0.87;;
13279;SDS011;6708;49.814;8.652;2024-02-15T14:39:31;4.17;;;1.60;;
13279;SDS011;6708;49.814;8.652;2024-02-15T14:42:00;0.80;;;0.73;;
13279;SDS011;6708;49.814;8.652;2024-02-15T14:44:30;0.80;;;0.80;;
13279;SDS011;6708;49.814;8.652;2024-02-15T14:47:10;1.30;;;1.00;;
13279;SDS011;6708;49.814;8.652;2024-02-15T14:49:44;1.50;;;0.70;;
13279;SDS011;6708;49.814;8.652;2024-02-15T14:52:15;0.70;;;0.47;;
13279;SDS011;6708;49.814;8.652;2024-02-15T14:54:43;1.23;;;0.80;;
13279;SDS011;6708;49.814;8.652;2024-02-15T14:57:13;1.23;;;0.90;;
13279;SDS011;6708;49.814;8.652;2024-02-15T14:59:41;0.70;;;0.70;;
13279;SDS011;6708;49.814;8.652;2024-02-15T15:02:10;2.77;;;0.87;;
13279;SDS011;6708;49.814;8.652;2024-02-15T15:04:43;2.70;;;0.93;;
13279;SDS011;6708;49.814;8.652;2024-02-15T15:07:35;1.23;;;0.70;;
13279;SDS011;6708;49.814;8.652;2024-02-15T15:10:17;1.97;;;1.23;;
13279;SDS011;6708;49.814;8.652;2024-02-15T15:12:59;1.77;;;0.90;;
13279;SDS011;6708;49.814;8.652;2024-02-15T15:15:28;0.77;;;0.57;;
13279;SDS011;6708;49.814;8.652;2024-02-15T15:17:57;0.70;;;0.70;;
13279;SDS011;6708;49.814;8.652;2024-02-15T15:20:28;0.70;;;0.70;;
13279;SDS011;6708;49.814;8.652;2024-02-15T15:22:58;2.30;;;1.00;;
13279;SDS011;6708;49.814;8.652;2024-02-15T15:25:27;0.50;;;0.50;;